sensor_id;sensor_type;location;lat;lon;timestamp;pressure;altitude;pressure_sealevel;temperature;humidity
36834;BME280;48003;52.084;5.224;2023-10-31T00:00:48;99664.0;;;13.2;87.88
36834;BME280;48003;52.084;5.224;2023-10-31T00:02:24;99666.0;;;13.2;87.96
36834;BME280;48003;52.084;5.224;2023-10-31T00:04:01;99669.0;;;13.28;87.66
36834;BME280;48003;52.084;5.224;2023-10-31T00:07:13;99676.0;;;13.31;87.76
36834;BME280;48003;52.084;5.224;2023-10-31T00:08:49;99686.0;;;13.2;88.81
36834;BME280;48003;52.084;5.224;2023-10-31T00:10:25;99688.0;;;13.35;88.02
36834;BME280;48003;52.084;5.224;2023-10-31T00:13:38;99692.0;;;13.31;88.76
36834;BME280;48003;52.084;5.224;2023-10-31T00:15:14;99699.0;;;13.01;89.47
36834;BME280;48003;52.084;5.224;2023-10-31T00:16:50;99699.0;;;13.44;88.0
36834;BME280;48003;52.084;5.224;2023-10-31T00:18:26;99694.0;;;13.38;88.08
36834;BME280;48003;52.084;5.224;2023-10-31T00:21:39;99696.0;;;13.02;89.57
36834;BME280;48003;52.084;5.224;2023-10-31T00:23:16;99695.0;;;13.37;88.57
36834;BME280;48003;52.084;5.224;2023-10-31T00:24:52;99692.0;;;13.0;89.69
36834;BME280;48003;52.084;5.224;2023-10-31T00:28:04;99685.0;;;13.5;88.26
36834;BME280;48003;52.084;5.224;2023-10-31T00:29:40;99685.0;;;13.55;87.72
36834;BME280;48003;52.084;5.224;2023-10-31T00:31:16;99691.0;;;13.2;89.92
36834;BME280;48003;52.084;5.224;2023-10-31T00:34:28;99689.0;;;13.36;89.05
36834;BME280;48003;52.084;5.224;2023-10-31T00:36:05;99690.0;;;13.37;89.17
36834;BME280;48003;52.084;5.224;2023-10-31T00:37:41;99689.0;;;13.4;88.49
36834;BME280;48003;52.084;5.224;2023-10-31T00:39:17;99691.0;;;13.59;88.03
36834;BME280;48003;52.084;5.224;2023-10-31T00:42:29;99694.0;;;13.56;88.26
36834;BME280;48003;52.084;5.224;2023-10-31T00:44:05;99693.0;;;13.44;88.78
36834;BME280;48003;52.084;5.224;2023-10-31T00:45:41;99696.0;;;13.58;88.01
36834;BME280;48003;52.084;5.224;2023-10-31T00:48:53;99705.0;;;13.07;91.3
36834;BME280;48003;52.084;5.224;2023-10-31T00:50:29;99707.0;;;13.38;89.98
36834;BME280;48003;52.084;5.224;2023-10-31T00:52:05;99713.0;;;13.28;90.2
36834;BME280;48003;52.084;5.224;2023-10-31T00:55:18;99709.0;;;12.97;91.4
36834;BME280;48003;52.084;5.224;2023-10-31T00:56:54;99712.0;;;13.56;89.43
36834;BME280;48003;52.084;5.224;2023-10-31T00:58:31;99714.0;;;13.33;90.01
36834;BME280;48003;52.084;5.224;2023-10-31T01:01:44;99719.0;;;13.37;90.24
36834;BME280;48003;52.084;5.224;2023-10-31T01:03:20;99720.0;;;13.56;88.98
36834;BME280;48003;52.084;5.224;2023-10-31T01:04:56;99721.0;;;13.47;89.06
36834;BME280;48003;52.084;5.224;2023-10-31T01:06:32;99717.0;;;13.34;89.36
36834;BME280;48003;52.084;5.224;2023-10-31T01:09:44;99720.0;;;13.16;90.82
36834;BME280;48003;52.084;5.224;2023-10-31T01:11:20;99724.0;;;13.17;91.04
36834;BME280;48003;52.084;5.224;2023-10-31T01:12:57;99730.0;;;13.17;89.46
36834;BME280;48003;52.084;5.224;2023-10-31T01:16:09;99728.0;;;13.31;89.82
36834;BME280;48003;52.084;5.224;2023-10-31T01:17:45;99730.0;;;13.39;89.39
36834;BME280;48003;52.084;5.224;2023-10-31T01:19:21;99730.0;;;13.48;88.76
36834;BME280;48003;52.084;5.224;2023-10-31T01:22:33;99730.0;;;13.34;88.59
36834;BME280;48003;52.084;5.224;2023-10-31T01:24:09;99727.0;;;13.56;87.98
36834;BME280;48003;52.084;5.224;2023-10-31T01:25:45;99730.0;;;13.32;87.72
36834;BME280;48003;52.084;5.224;2023-10-31T01:27:21;99730.0;;;13.26;89.05
36834;BME280;48003;52.084;5.224;2023-10-31T01:30:34;99733.0;;;13.44;88.74
36834;BME280;48003;52.084;5.224;2023-10-31T01:32:10;99732.0;;;13.64;87.2
36834;BME280;48003;52.084;5.224;2023-10-31T01:33:46;99732.0;;;13.71;86.7
36834;BME280;48003;52.084;5.224;2023-10-31T01:36:58;99735.0;;;13.26;89.12
36834;BME280;48003;52.084;5.224;2023-10-31T01:38:34;99739.0;;;13.07;91.01
36834;BME280;48003;52.084;5.224;2023-10-31T01:40:12;99739.0;;;13.25;89.14
36834;BME280;48003;52.084;5.224;2023-10-31T01:43:30;99733.0;;;13.16;90.67
36834;BME280;48003;52.084;5.224;2023-10-31T01:45:07;99733.0;;;13.07;90.25
36834;BME280;48003;52.084;5.224;2023-10-31T01:46:43;99737.0;;;13.27;89.24
36834;BME280;48003;52.084;5.224;2023-10-31T01:48:19;99734.0;;;13.39;89.57
36834;BME280;48003;52.084;5.224;2023-10-31T01:51:31;99739.0;;;13.41;89.55
36834;BME280;48003;52.084;5.224;2023-10-31T01:53:07;99740.0;;;13.58;88.45
36834;BME280;48003;52.084;5.224;2023-10-31T01:54:43;99740.0;;;13.47;88.97
36834;BME280;48003;52.084;5.224;2023-10-31T01:57:58;99745.0;;;13.33;89.66
36834;BME280;48003;52.084;5.224;2023-10-31T01:59:34;99743.0;;;13.32;90.22
36834;BME280;48003;52.084;5.224;2023-10-31T02:01:10;99741.0;;;13.43;89.22
36834;BME280;48003;52.084;5.224;2023-10-31T02:04:24;99742.0;;;13.16;90.86
36834;BME280;48003;52.084;5.224;2023-10-31T02:06:00;99740.0;;;13.42;89.96
36834;BME280;48003;52.084;5.224;2023-10-31T02:07:36;99743.0;;;13.2;90.73
36834;BME280;48003;52.084;5.224;2023-10-31T02:09:12;99742.0;;;13.31;90.93
36834;BME280;48003;52.084;5.224;2023-10-31T02:12:32;99738.0;;;12.9;92.25
36834;BME280;48003;52.084;5.224;2023-10-31T02:14:08;99743.0;;;13.37;90.9
36834;BME280;48003;52.084;5.224;2023-10-31T02:15:45;99743.0;;;13.52;89.76
36834;BME280;48003;52.084;5.224;2023-10-31T02:18:57;99746.0;;;13.36;89.56
36834;BME280;48003;52.084;5.224;2023-10-31T02:20:34;99753.0;;;13.04;91.46
36834;BME280;48003;52.084;5.224;2023-10-31T02:22:11;99746.0;;;13.34;90.67
36834;BME280;48003;52.084;5.224;2023-10-31T02:25:33;99755.0;;;13.03;92.73
36834;BME280;48003;52.084;5.224;2023-10-31T02:27:09;99755.0;;;13.28;91.82
36834;BME280;48003;52.084;5.224;2023-10-31T02:28:45;99757.0;;;13.45;90.56
36834;BME280;48003;52.084;5.224;2023-10-31T02:30:21;99761.0;;;13.11;91.52
36834;BME280;48003;52.084;5.224;2023-10-31T02:33:33;99766.0;;;13.08;91.96
36834;BME280;48003;52.084;5.224;2023-10-31T02:35:10;99761.0;;;13.19;91.56
36834;BME280;48003;52.084;5.224;2023-10-31T02:36:45;99765.0;;;13.12;91.38
36834;BME280;48003;52.084;5.224;2023-10-31T02:39:58;99775.0;;;13.23;92.13
36834;BME280;48003;52.084;5.224;2023-10-31T02:41:34;99770.0;;;13.12;91.79
36834;BME280;48003;52.084;5.224;2023-10-31T02:43:10;99772.0;;;13.24;92.49
36834;BME280;48003;52.084;5.224;2023-10-31T02:44:46;99773.0;;;13.24;92.58
36834;BME280;48003;52.084;5.224;2023-10-31T02:47:58;99775.0;;;13.26;91.25
36834;BME280;48003;52.084;5.224;2023-10-31T02:49:34;99782.0;;;13.02;93.2
36834;BME280;48003;52.084;5.224;2023-10-31T02:51:10;99777.0;;;13.48;91.08
36834;BME280;48003;52.084;5.224;2023-10-31T02:54:22;99780.0;;;13.28;91.58
36834;BME280;48003;52.084;5.224;2023-10-31T02:55:59;99780.0;;;13.3;92.09
36834;BME280;48003;52.084;5.224;2023-10-31T02:57:35;99781.0;;;13.26;91.64
36834;BME280;48003;52.084;5.224;2023-10-31T03:00:47;99785.0;;;13.39;91.35
36834;BME280;48003;52.084;5.224;2023-10-31T03:02:23;99790.0;;;13.55;90.61
36834;BME280;48003;52.084;5.224;2023-10-31T03:03:59;99788.0;;;13.46;90.89
36834;BME280;48003;52.084;5.224;2023-10-31T03:07:11;99791.0;;;13.51;90.67
36834;BME280;48003;52.084;5.224;2023-10-31T03:08:47;99794.0;;;13.24;91.78
36834;BME280;48003;52.084;5.224;2023-10-31T03:10:23;99798.0;;;13.35;91.25
36834;BME280;48003;52.084;5.224;2023-10-31T03:12:00;99806.0;;;13.29;91.17
36834;BME280;48003;52.084;5.224;2023-10-31T03:15:12;99806.0;;;13.39;90.91
36834;BME280;48003;52.084;5.224;2023-10-31T03:16:48;99812.0;;;13.29;90.88
36834;BME280;48003;52.084;5.224;2023-10-31T03:18:24;99812.0;;;13.35;90.61
36834;BME280;48003;52.084;5.224;2023-10-31T03:21:36;99822.0;;;13.25;90.15
36834;BME280;48003;52.084;5.224;2023-10-31T03:23:12;99819.0;;;13.28;90.6
36834;BME280;48003;52.084;5.224;2023-10-31T03:24:48;99821.0;;;13.47;89.79
36834;BME280;48003;52.084;5.224;2023-10-31T03:28:01;99823.0;;;13.51;89.16
36834;BME280;48003;52.084;5.224;2023-10-31T03:29:38;99830.0;;;13.47;89.32
36834;BME280;48003;52.084;5.224;2023-10-31T03:31:15;99834.0;;;13.43;89.49
36834;BME280;48003;52.084;5.224;2023-10-31T03:34:27;99839.0;;;13.39;89.72
36834;BME280;48003;52.084;5.224;2023-10-31T03:36:04;99833.0;;;13.53;89.3
36834;BME280;48003;52.084;5.224;2023-10-31T03:37:40;99840.0;;;13.48;89.5
36834;BME280;48003;52.084;5.224;2023-10-31T03:39:16;99838.0;;;13.47;89.35
36834;BME280;48003;52.084;5.224;2023-10-31T03:42:29;99851.0;;;13.37;89.38
36834;BME280;48003;52.084;5.224;2023-10-31T03:44:05;99849.0;;;13.28;90.12
36834;BME280;48003;52.084;5.224;2023-10-31T03:45:42;99852.0;;;13.42;89.27
36834;BME280;48003;52.084;5.224;2023-10-31T03:48:54;99856.0;;;13.54;88.56
36834;BME280;48003;52.084;5.224;2023-10-31T03:50:30;99862.0;;;13.4;89.42
36834;BME280;48003;52.084;5.224;2023-10-31T03:52:06;99862.0;;;13.49;88.77
36834;BME280;48003;52.084;5.224;2023-10-31T03:55:18;99863.0;;;13.44;89.22
36834;BME280;48003;52.084;5.224;2023-10-31T03:56:54;99865.0;;;13.5;88.27
36834;BME280;48003;52.084;5.224;2023-10-31T03:58:30;99867.0;;;13.57;88.98
36834;BME280;48003;52.084;5.224;2023-10-31T04:00:07;99873.0;;;13.52;88.58
36834;BME280;48003;52.084;5.224;2023-10-31T04:03:20;99877.0;;;13.59;87.95
36834;BME280;48003;52.084;5.224;2023-10-31T04:04:56;99874.0;;;13.51;88.47
36834;BME280;48003;52.084;5.224;2023-10-31T04:06:32;99875.0;;;13.63;87.83
36834;BME280;48003;52.084;5.224;2023-10-31T04:09:44;99874.0;;;13.67;87.7
36834;BME280;48003;52.084;5.224;2023-10-31T04:11:20;99880.0;;;13.48;88.41
36834;BME280;48003;52.084;5.224;2023-10-31T04:12:56;99884.0;;;13.27;88.87
36834;BME280;48003;52.084;5.224;2023-10-31T04:16:10;99889.0;;;13.09;89.92
36834;BME280;48003;52.084;5.224;2023-10-31T04:17:47;99890.0;;;12.89;91.08
36834;BME280;48003;52.084;5.224;2023-10-31T04:19:24;99892.0;;;13.43;88.3
36834;BME280;48003;52.084;5.224;2023-10-31T04:21:00;99887.0;;;13.4;87.59
36834;BME280;48003;52.084;5.224;2023-10-31T04:24:12;99884.0;;;13.38;87.11
36834;BME280;48003;52.084;5.224;2023-10-31T04:25:48;99892.0;;;13.08;88.65
36834;BME280;48003;52.084;5.224;2023-10-31T04:27:24;99896.0;;;12.71;89.88
36834;BME280;48003;52.084;5.224;2023-10-31T04:30:36;99896.0;;;13.13;87.99
36834;BME280;48003;52.084;5.224;2023-10-31T04:32:12;99901.0;;;13.08;88.71
36834;BME280;48003;52.084;5.224;2023-10-31T04:33:48;99900.0;;;12.71;88.65
36834;BME280;48003;52.084;5.224;2023-10-31T04:37:01;99902.0;;;13.0;88.43
36834;BME280;48003;52.084;5.224;2023-10-31T04:38:37;99899.0;;;13.15;88.03
36834;BME280;48003;52.084;5.224;2023-10-31T04:40:13;99906.0;;;13.46;86.1
36834;BME280;48003;52.084;5.224;2023-10-31T04:43:25;99906.0;;;13.45;85.85
36834;BME280;48003;52.084;5.224;2023-10-31T04:45:01;99903.0;;;13.43;85.93
36834;BME280;48003;52.084;5.224;2023-10-31T04:46:37;99901.0;;;13.4;86.04
36834;BME280;48003;52.084;5.224;2023-10-31T04:48:13;99905.0;;;13.33;86.02
36834;BME280;48003;52.084;5.224;2023-10-31T04:51:26;99905.0;;;13.31;86.08
36834;BME280;48003;52.084;5.224;2023-10-31T04:53:02;99909.0;;;13.12;86.73
36834;BME280;48003;52.084;5.224;2023-10-31T04:54:38;99909.0;;;13.27;86.57
36834;BME280;48003;52.084;5.224;2023-10-31T04:57:52;99913.0;;;13.21;86.64
36834;BME280;48003;52.084;5.224;2023-10-31T04:59:28;99909.0;;;13.36;86.18
36834;BME280;48003;52.084;5.224;2023-10-31T05:01:07;99917.0;;;13.26;86.21
36834;BME280;48003;52.084;5.224;2023-10-31T05:04:20;99922.0;;;13.5;85.14
36834;BME280;48003;52.084;5.224;2023-10-31T05:05:56;99928.0;;;13.38;85.91
36834;BME280;48003;52.084;5.224;2023-10-31T05:07:32;99928.0;;;13.39;85.39
36834;BME280;48003;52.084;5.224;2023-10-31T05:09:09;99930.0;;;12.84;87.18
36834;BME280;48003;52.084;5.224;2023-10-31T05:12:21;99931.0;;;13.08;87.38
36834;BME280;48003;52.084;5.224;2023-10-31T05:13:57;99937.0;;;12.88;87.8
36834;BME280;48003;52.084;5.224;2023-10-31T05:15:33;99939.0;;;13.04;86.63
36834;BME280;48003;52.084;5.224;2023-10-31T05:18:45;99943.0;;;13.34;85.78
36834;BME280;48003;52.084;5.224;2023-10-31T05:20:21;99941.0;;;12.99;87.06
36834;BME280;48003;52.084;5.224;2023-10-31T05:21:57;99946.0;;;13.09;87.46
36834;BME280;48003;52.084;5.224;2023-10-31T05:25:10;99947.0;;;13.14;87.0
36834;BME280;48003;52.084;5.224;2023-10-31T05:26:46;99944.0;;;12.6;89.77
36834;BME280;48003;52.084;5.224;2023-10-31T05:28:22;99950.0;;;12.94;89.23
36834;BME280;48003;52.084;5.224;2023-10-31T05:31:35;99950.0;;;13.04;88.71
36834;BME280;48003;52.084;5.224;2023-10-31T05:33:11;99953.0;;;13.03;88.15
36834;BME280;48003;52.084;5.224;2023-10-31T05:34:47;99959.0;;;13.26;87.21
36834;BME280;48003;52.084;5.224;2023-10-31T05:36:24;99963.0;;;13.23;87.2
36834;BME280;48003;52.084;5.224;2023-10-31T05:39:37;99969.0;;;13.29;86.61
36834;BME280;48003;52.084;5.224;2023-10-31T05:41:14;99971.0;;;13.02;88.24
36834;BME280;48003;52.084;5.224;2023-10-31T05:42:50;99981.0;;;13.29;86.66
36834;BME280;48003;52.084;5.224;2023-10-31T05:46:02;99975.0;;;12.73;88.88
36834;BME280;48003;52.084;5.224;2023-10-31T05:47:38;99980.0;;;13.13;87.54
36834;BME280;48003;52.084;5.224;2023-10-31T05:49:14;99978.0;;;13.02;87.91
36834;BME280;48003;52.084;5.224;2023-10-31T05:52:28;99980.0;;;12.81;88.53
36834;BME280;48003;52.084;5.224;2023-10-31T05:54:04;99981.0;;;13.07;86.84
36834;BME280;48003;52.084;5.224;2023-10-31T05:55:42;99977.0;;;12.85;88.48
36834;BME280;48003;52.084;5.224;2023-10-31T05:57:18;99980.0;;;13.14;87.41
36834;BME280;48003;52.084;5.224;2023-10-31T06:00:31;99980.0;;;12.96;87.63
36834;BME280;48003;52.084;5.224;2023-10-31T06:02:07;99980.0;;;12.56;89.14
36834;BME280;48003;52.084;5.224;2023-10-31T06:03:43;99991.0;;;12.87;88.72
36834;BME280;48003;52.084;5.224;2023-10-31T06:06:55;99987.0;;;13.04;87.09
36834;BME280;48003;52.084;5.224;2023-10-31T06:08:31;99991.0;;;12.85;87.52
36834;BME280;48003;52.084;5.224;2023-10-31T06:10:07;99996.0;;;12.64;89.46
36834;BME280;48003;52.084;5.224;2023-10-31T06:13:20;99997.0;;;13.02;87.59
36834;BME280;48003;52.084;5.224;2023-10-31T06:14:56;99999.0;;;12.59;88.71
36834;BME280;48003;52.084;5.224;2023-10-31T06:16:32;100006.0;;;12.77;88.82
36834;BME280;48003;52.084;5.224;2023-10-31T06:19:44;100003.0;;;12.59;89.29
36834;BME280;48003;52.084;5.224;2023-10-31T06:21:20;100005.0;;;12.32;91.25
36834;BME280;48003;52.084;5.224;2023-10-31T06:22:56;99999.0;;;12.63;89.94
36834;BME280;48003;52.084;5.224;2023-10-31T06:24:32;100003.0;;;12.87;88.59
36834;BME280;48003;52.084;5.224;2023-10-31T06:27:44;100002.0;;;13.04;87.19
36834;BME280;48003;52.084;5.224;2023-10-31T06:29:21;99999.0;;;13.02;87.61
36834;BME280;48003;52.084;5.224;2023-10-31T06:30:57;99999.0;;;12.87;88.37
36834;BME280;48003;52.084;5.224;2023-10-31T06:34:09;100005.0;;;12.94;88.2
36834;BME280;48003;52.084;5.224;2023-10-31T06:35:45;100012.0;;;12.89;88.33
36834;BME280;48003;52.084;5.224;2023-10-31T06:37:21;100019.0;;;13.25;86.57
36834;BME280;48003;52.084;5.224;2023-10-31T06:40:33;100021.0;;;13.13;86.85
36834;BME280;48003;52.084;5.224;2023-10-31T06:42:09;100019.0;;;13.1;87.2
36834;BME280;48003;52.084;5.224;2023-10-31T06:43:45;100021.0;;;12.79;87.6
36834;BME280;48003;52.084;5.224;2023-10-31T06:45:22;100024.0;;;12.88;88.59
36834;BME280;48003;52.084;5.224;2023-10-31T06:50:10;100035.0;;;12.34;89.93
36834;BME280;48003;52.084;5.224;2023-10-31T06:51:46;100037.0;;;12.89;88.47
36834;BME280;48003;52.084;5.224;2023-10-31T06:54:58;100038.0;;;13.05;87.13
36834;BME280;48003;52.084;5.224;2023-10-31T06:56:34;100040.0;;;12.79;88.61
36834;BME280;48003;52.084;5.224;2023-10-31T06:58:10;100045.0;;;12.6;89.91
36834;BME280;48003;52.084;5.224;2023-10-31T07:01:23;100037.0;;;12.48;90.88
36834;BME280;48003;52.084;5.224;2023-10-31T07:02:59;100044.0;;;12.17;91.82
36834;BME280;48003;52.084;5.224;2023-10-31T07:04:36;100044.0;;;12.54;91.13
36834;BME280;48003;52.084;5.224;2023-10-31T07:07:48;100047.0;;;12.49;90.32
36834;BME280;48003;52.084;5.224;2023-10-31T07:09:24;100053.0;;;12.4;90.79
36834;BME280;48003;52.084;5.224;2023-10-31T07:11:01;100057.0;;;12.6;90.95
36834;BME280;48003;52.084;5.224;2023-10-31T07:12:38;100063.0;;;12.14;93.17
36834;BME280;48003;52.084;5.224;2023-10-31T07:15:50;100066.0;;;12.76;90.23
36834;BME280;48003;52.084;5.224;2023-10-31T07:17:26;100069.0;;;12.18;92.75
36834;BME280;48003;52.084;5.224;2023-10-31T07:19:03;100068.0;;;12.13;93.28
36834;BME280;48003;52.084;5.224;2023-10-31T07:22:15;100068.0;;;12.46;93.08
36834;BME280;48003;52.084;5.224;2023-10-31T07:23:51;100067.0;;;12.65;91.32
36834;BME280;48003;52.084;5.224;2023-10-31T07:25:27;100070.0;;;12.51;92.8
36834;BME280;48003;52.084;5.224;2023-10-31T07:28:40;100072.0;;;12.91;90.64
36834;BME280;48003;52.084;5.224;2023-10-31T07:30:16;100077.0;;;12.75;91.93
36834;BME280;48003;52.084;5.224;2023-10-31T07:31:52;100075.0;;;12.78;91.27
36834;BME280;48003;52.084;5.224;2023-10-31T07:33:28;100078.0;;;12.84;91.43
36834;BME280;48003;52.084;5.224;2023-10-31T07:36:41;100081.0;;;12.76;91.5
36834;BME280;48003;52.084;5.224;2023-10-31T07:38:18;100083.0;;;12.53;92.41
36834;BME280;48003;52.084;5.224;2023-10-31T07:39:54;100085.0;;;13.05;90.87
36834;BME280;48003;52.084;5.224;2023-10-31T07:43:06;100092.0;;;13.2;89.98
36834;BME280;48003;52.084;5.224;2023-10-31T07:44:42;100091.0;;;13.19;89.54
36834;BME280;48003;52.084;5.224;2023-10-31T07:46:18;100097.0;;;13.05;89.87
36834;BME280;48003;52.084;5.224;2023-10-31T07:49:30;100098.0;;;13.04;90.38
36834;BME280;48003;52.084;5.224;2023-10-31T07:51:06;100095.0;;;12.75;91.45
36834;BME280;48003;52.084;5.224;2023-10-31T07:52:42;100097.0;;;12.5;92.67
36834;BME280;48003;52.084;5.224;2023-10-31T07:55:55;100103.0;;;12.35;93.55
36834;BME280;48003;52.084;5.224;2023-10-31T07:57:31;100101.0;;;12.45;94.71
36834;BME280;48003;52.084;5.224;2023-10-31T07:59:07;100107.0;;;12.68;92.86
36834;BME280;48003;52.084;5.224;2023-10-31T08:00:43;100099.0;;;13.02;91.04
36834;BME280;48003;52.084;5.224;2023-10-31T08:03:55;100095.0;;;13.17;91.12
36834;BME280;48003;52.084;5.224;2023-10-31T08:05:31;100095.0;;;13.2;90.45
36834;BME280;48003;52.084;5.224;2023-10-31T08:07:07;100099.0;;;13.21;90.2
36834;BME280;48003;52.084;5.224;2023-10-31T08:10:19;100101.0;;;12.92;92.42
36834;BME280;48003;52.084;5.224;2023-10-31T08:11:55;100102.0;;;12.83;93.35
36834;BME280;48003;52.084;5.224;2023-10-31T08:13:32;100103.0;;;13.29;91.69
36834;BME280;48003;52.084;5.224;2023-10-31T08:16:46;100101.0;;;13.17;92.35
36834;BME280;48003;52.084;5.224;2023-10-31T08:18:23;100105.0;;;13.64;89.41
36834;BME280;48003;52.084;5.224;2023-10-31T08:19:59;100101.0;;;13.7;89.22
36834;BME280;48003;52.084;5.224;2023-10-31T08:21:36;100107.0;;;13.11;92.32
36834;BME280;48003;52.084;5.224;2023-10-31T08:24:48;100107.0;;;13.11;91.74
36834;BME280;48003;52.084;5.224;2023-10-31T08:26:25;100108.0;;;13.18;91.42
36834;BME280;48003;52.084;5.224;2023-10-31T08:28:01;100106.0;;;13.23;91.37
36834;BME280;48003;52.084;5.224;2023-10-31T08:31:13;100105.0;;;13.6;90.26
36834;BME280;48003;52.084;5.224;2023-10-31T08:32:49;100107.0;;;13.77;88.79
36834;BME280;48003;52.084;5.224;2023-10-31T08:34:25;100109.0;;;13.84;88.07
36834;BME280;48003;52.084;5.224;2023-10-31T08:37:39;100110.0;;;13.9;87.57
36834;BME280;48003;52.084;5.224;2023-10-31T08:39:15;100112.0;;;13.85;88.25
36834;BME280;48003;52.084;5.224;2023-10-31T08:40:51;100109.0;;;13.88;87.85
36834;BME280;48003;52.084;5.224;2023-10-31T08:44:04;100117.0;;;13.6;89.1
36834;BME280;48003;52.084;5.224;2023-10-31T08:45:40;100116.0;;;13.62;89.1
36834;BME280;48003;52.084;5.224;2023-10-31T08:47:16;100116.0;;;13.42;90.24
36834;BME280;48003;52.084;5.224;2023-10-31T08:48:52;100113.0;;;13.59;90.0
36834;BME280;48003;52.084;5.224;2023-10-31T08:52:04;100117.0;;;13.14;92.52
36834;BME280;48003;52.084;5.224;2023-10-31T08:53:40;100124.0;;;13.33;92.07
36834;BME280;48003;52.084;5.224;2023-10-31T08:55:16;100131.0;;;13.48;91.44
36834;BME280;48003;52.084;5.224;2023-10-31T08:58:28;100141.0;;;13.81;90.47
36834;BME280;48003;52.084;5.224;2023-10-31T09:00:06;100139.0;;;13.8;89.36
36834;BME280;48003;52.084;5.224;2023-10-31T09:01:43;100144.0;;;13.83;89.97
36834;BME280;48003;52.084;5.224;2023-10-31T09:04:55;100148.0;;;14.09;88.73
36834;BME280;48003;52.084;5.224;2023-10-31T09:06:31;100155.0;;;13.91;89.79
36834;BME280;48003;52.084;5.224;2023-10-31T09:08:07;100159.0;;;13.64;91.27
36834;BME280;48003;52.084;5.224;2023-10-31T09:09:43;100159.0;;;13.91;89.61
36834;BME280;48003;52.084;5.224;2023-10-31T09:12:55;100161.0;;;13.5;91.97
36834;BME280;48003;52.084;5.224;2023-10-31T09:14:31;100171.0;;;13.93;89.82
36834;BME280;48003;52.084;5.224;2023-10-31T09:16:08;100167.0;;;14.01;89.82
36834;BME280;48003;52.084;5.224;2023-10-31T09:19:21;100172.0;;;14.07;89.28
36834;BME280;48003;52.084;5.224;2023-10-31T09:20:57;100172.0;;;13.82;90.68
36834;BME280;48003;52.084;5.224;2023-10-31T09:22:33;100176.0;;;13.85;91.26
36834;BME280;48003;52.084;5.224;2023-10-31T09:25:46;100176.0;;;14.22;89.08
36834;BME280;48003;52.084;5.224;2023-10-31T09:27:22;100178.0;;;14.01;90.38
36834;BME280;48003;52.084;5.224;2023-10-31T09:28:58;100178.0;;;14.04;89.47
36834;BME280;48003;52.084;5.224;2023-10-31T09:32:10;100180.0;;;14.11;90.44
36834;BME280;48003;52.084;5.224;2023-10-31T09:33:46;100184.0;;;14.24;89.54
36834;BME280;48003;52.084;5.224;2023-10-31T09:35:22;100182.0;;;14.27;89.03
36834;BME280;48003;52.084;5.224;2023-10-31T09:36:59;100187.0;;;14.34;89.41
36834;BME280;48003;52.084;5.224;2023-10-31T09:40:11;100190.0;;;14.57;87.61
36834;BME280;48003;52.084;5.224;2023-10-31T09:41:47;100184.0;;;14.21;89.11
36834;BME280;48003;52.084;5.224;2023-10-31T09:43:23;100193.0;;;14.54;87.74
36834;BME280;48003;52.084;5.224;2023-10-31T09:46:36;100197.0;;;14.74;86.48
36834;BME280;48003;52.084;5.224;2023-10-31T09:48:12;100194.0;;;14.69;86.53
36834;BME280;48003;52.084;5.224;2023-10-31T09:49:50;100199.0;;;14.77;87.59
36834;BME280;48003;52.084;5.224;2023-10-31T09:53:05;100202.0;;;14.69;87.58
36834;BME280;48003;52.084;5.224;2023-10-31T09:54:42;100208.0;;;14.35;89.13
36834;BME280;48003;52.084;5.224;2023-10-31T09:56:19;100203.0;;;14.26;90.43
36834;BME280;48003;52.084;5.224;2023-10-31T09:57:55;100209.0;;;14.35;90.42
36834;BME280;48003;52.084;5.224;2023-10-31T10:01:07;100206.0;;;14.28;90.48
36834;BME280;48003;52.084;5.224;2023-10-31T10:02:43;100208.0;;;14.11;91.95
36834;BME280;48003;52.084;5.224;2023-10-31T10:04:19;100208.0;;;14.34;91.35
36834;BME280;48003;52.084;5.224;2023-10-31T10:07:34;100213.0;;;14.64;89.49
36834;BME280;48003;52.084;5.224;2023-10-31T10:09:10;100217.0;;;14.62;88.91
36834;BME280;48003;52.084;5.224;2023-10-31T10:10:48;100217.0;;;14.44;89.81
36834;BME280;48003;52.084;5.224;2023-10-31T10:14:00;100222.0;;;14.4;90.9
36834;BME280;48003;52.084;5.224;2023-10-31T10:15:44;100230.0;;;14.56;89.57
36834;BME280;48003;52.084;5.224;2023-10-31T10:17:21;100231.0;;;14.93;88.18
36834;BME280;48003;52.084;5.224;2023-10-31T10:19:14;100236.0;;;15.07;87.81
36834;BME280;48003;52.084;5.224;2023-10-31T10:20:55;100236.0;;;14.75;88.51
36834;BME280;48003;52.084;5.224;2023-10-31T10:24:08;100241.0;;;14.67;89.28
36834;BME280;48003;52.084;5.224;2023-10-31T10:25:49;100241.0;;;14.99;88.12
36834;BME280;48003;52.084;5.224;2023-10-31T10:27:25;100247.0;;;14.76;88.7
36834;BME280;48003;52.084;5.224;2023-10-31T10:30:38;100251.0;;;14.8;88.2
36834;BME280;48003;52.084;5.224;2023-10-31T10:32:14;100249.0;;;14.68;89.4
36834;BME280;48003;52.084;5.224;2023-10-31T10:33:50;100255.0;;;14.8;89.14
36834;BME280;48003;52.084;5.224;2023-10-31T10:37:05;100257.0;;;14.6;90.1
36834;BME280;48003;52.084;5.224;2023-10-31T10:38:44;100256.0;;;14.91;89.04
36834;BME280;48003;52.084;5.224;2023-10-31T10:40:22;100252.0;;;15.25;86.89
36834;BME280;48003;52.084;5.224;2023-10-31T10:42:01;100253.0;;;15.05;87.7
36834;BME280;48003;52.084;5.224;2023-10-31T10:45:15;100251.0;;;15.09;88.47
36834;BME280;48003;52.084;5.224;2023-10-31T10:46:54;100248.0;;;15.62;85.41
36834;BME280;48003;52.084;5.224;2023-10-31T10:48:34;100249.0;;;15.76;83.37
36834;BME280;48003;52.084;5.224;2023-10-31T10:50:15;100251.0;;;15.5;84.75
36834;BME280;48003;52.084;5.224;2023-10-31T10:53:35;100255.0;;;15.31;85.25
36834;BME280;48003;52.084;5.224;2023-10-31T10:55:20;100250.0;;;15.5;84.83
36834;BME280;48003;52.084;5.224;2023-10-31T10:57:08;100255.0;;;15.48;84.32
36834;BME280;48003;52.084;5.224;2023-10-31T10:58:51;100255.0;;;15.52;84.01
36834;BME280;48003;52.084;5.224;2023-10-31T11:02:07;100255.0;;;15.62;83.55
36834;BME280;48003;52.084;5.224;2023-10-31T11:03:45;100255.0;;;15.45;83.77
36834;BME280;48003;52.084;5.224;2023-10-31T11:05:23;100258.0;;;15.7;83.09
36834;BME280;48003;52.084;5.224;2023-10-31T11:07:00;100262.0;;;15.51;81.58
36834;BME280;48003;52.084;5.224;2023-10-31T11:10:14;100260.0;;;15.51;81.12
36834;BME280;48003;52.084;5.224;2023-10-31T11:11:52;100266.0;;;15.68;80.95